createdAt,value
2022-08-23T00:01:31.248Z,16.70
2022-08-23T00:04:02.195Z,16.78
2022-08-23T00:06:41.281Z,16.74
2022-08-23T00:09:10.033Z,16.81
2022-08-23T00:11:43.141Z,16.62
2022-08-23T00:14:14.387Z,16.74
2022-08-23T00:16:44.091Z,16.64
2022-08-23T00:19:14.233Z,16.82
2022-08-23T00:21:44.961Z,16.70
2022-08-23T00:24:14.057Z,16.80
2022-08-23T00:27:00.018Z,16.68
2022-08-23T00:29:31.148Z,16.53
2022-08-23T00:32:01.037Z,16.81
2022-08-23T00:34:29.452Z,16.77
2022-08-23T00:37:00.299Z,16.62
2022-08-23T00:39:29.027Z,16.71
2022-08-23T00:42:01.378Z,16.54
2022-08-23T00:45:00.151Z,16.66
2022-08-23T00:47:46.234Z,16.56
2022-08-23T00:50:24.006Z,16.58
2022-08-23T00:53:05.297Z,16.58
2022-08-23T00:55:34.569Z,16.62
2022-08-23T00:58:03.093Z,16.57
2022-08-23T01:00:35.049Z,16.57
2022-08-23T01:03:07.180Z,16.51
2022-08-23T01:05:47.730Z,16.63
2022-08-23T01:08:18.574Z,16.58
2022-08-23T01:10:49.758Z,16.52
2022-08-23T01:13:22.797Z,16.55
2022-08-23T01:15:58.933Z,16.55
2022-08-23T01:18:29.955Z,16.55
2022-08-23T01:21:08.009Z,16.49
2022-08-23T01:23:45.048Z,16.54
2022-08-23T01:26:15.965Z,16.43
2022-08-23T01:28:53.707Z,16.67
2022-08-23T01:31:23.508Z,16.63
2022-08-23T01:33:56.579Z,16.60
2022-08-23T01:36:24.935Z,16.60
2022-08-23T01:38:56.720Z,16.55
2022-08-23T01:41:25.266Z,16.45
2022-08-23T01:43:54.097Z,16.56
2022-08-23T01:46:26.230Z,16.41
2022-08-23T01:48:56.373Z,16.53
2022-08-23T01:51:28.253Z,16.50
2022-08-23T01:53:59.229Z,16.52
2022-08-23T01:56:38.341Z,16.44
2022-08-23T01:59:13.515Z,16.44
2022-08-23T02:01:48.430Z,16.45
2022-08-23T02:04:18.863Z,16.41
2022-08-23T02:06:47.690Z,16.37
2022-08-23T02:09:25.567Z,16.62
2022-08-23T02:11:58.756Z,16.58
2022-08-23T02:14:27.084Z,16.53
2022-08-23T02:17:04.304Z,16.58
2022-08-23T02:19:37.832Z,16.55
2022-08-23T02:22:08.363Z,16.38
2022-08-23T02:24:44.870Z,16.43
2022-08-23T02:27:15.996Z,16.41
2022-08-23T02:29:47.084Z,16.43
2022-08-23T02:32:20.384Z,16.42
2022-08-23T02:34:59.842Z,16.34
2022-08-23T02:37:35.247Z,16.40
2022-08-23T02:40:06.326Z,16.44
2022-08-23T02:42:34.798Z,16.57
2022-08-23T02:45:06.477Z,16.41
2022-08-23T02:47:36.954Z,16.40
2022-08-23T02:50:26.153Z,16.51
2022-08-23T02:52:55.031Z,16.50
2022-08-23T02:55:26.205Z,16.56
2022-08-23T02:57:54.520Z,16.57
2022-08-23T03:00:23.404Z,16.55
2022-08-23T03:02:52.853Z,16.56
2022-08-23T03:05:21.922Z,16.50
2022-08-23T03:07:50.131Z,16.58
2022-08-23T03:10:18.763Z,16.48
2022-08-23T03:12:54.859Z,16.45
2022-08-23T03:15:24.110Z,16.29
2022-08-23T03:17:53.580Z,16.36
2022-08-23T03:20:22.910Z,16.37
2022-08-23T03:22:54.594Z,16.56
2022-08-23T03:25:26.212Z,16.48
2022-08-23T03:28:12.672Z,16.49
2022-08-23T03:30:45.851Z,16.26
2022-08-23T03:33:14.673Z,16.28
2022-08-23T03:35:47.330Z,16.51
2022-08-23T03:38:16.852Z,16.54
2022-08-23T03:40:46.325Z,16.49
2022-08-23T03:43:15.888Z,16.34
2022-08-23T03:45:46.669Z,16.40
2022-08-23T03:48:16.238Z,16.41
2022-08-23T03:50:46.610Z,16.49
2022-08-23T03:53:15.182Z,16.53
2022-08-23T03:55:46.580Z,16.43
2022-08-23T03:58:21.691Z,16.55
2022-08-23T04:00:51.115Z,16.46
2022-08-23T04:03:20.752Z,16.46
2022-08-23T04:05:58.656Z,16.58
2022-08-23T04:08:33.169Z,16.55
2022-08-23T04:13:57.249Z,16.56
2022-08-23T04:16:26.882Z,16.60
2022-08-23T04:18:55.067Z,16.64
2022-08-23T04:21:26.066Z,16.44
2022-08-23T04:23:55.526Z,16.65
2022-08-23T04:26:28.349Z,16.63
2022-08-23T04:29:00.518Z,16.55
2022-08-23T04:31:29.169Z,16.68
2022-08-23T04:34:06.479Z,16.71
2022-08-23T04:36:41.935Z,16.71
2022-08-23T04:39:19.911Z,16.66
2022-08-23T04:42:07.106Z,16.79
2022-08-23T04:44:37.119Z,16.70
2022-08-23T04:47:07.157Z,16.50
2022-08-23T04:49:35.886Z,16.49
2022-08-23T04:52:05.434Z,16.54
2022-08-23T04:54:35.142Z,16.69
2022-08-23T04:57:27.228Z,16.68
2022-08-23T04:59:57.988Z,16.54
2022-08-23T05:02:27.667Z,16.59
2022-08-23T05:04:57.055Z,16.76
2022-08-23T05:07:41.676Z,16.81
2022-08-23T05:10:14.074Z,16.90
2022-08-23T05:12:49.244Z,16.85
2022-08-23T05:15:20.716Z,17.00
2022-08-23T05:17:55.261Z,16.72
2022-08-23T05:20:23.627Z,16.92
2022-08-23T05:22:51.709Z,16.75
2022-08-23T05:25:57.290Z,16.65
2022-08-23T05:28:35.467Z,16.85
2022-08-23T05:31:13.534Z,16.91
2022-08-23T05:33:48.879Z,17.05
2022-08-23T05:36:26.700Z,17.11
2022-08-23T05:38:56.359Z,16.94
2022-08-23T05:41:33.382Z,17.12
2022-08-23T05:44:11.529Z,16.86
2022-08-23T05:46:54.343Z,16.98
2022-08-23T05:49:32.612Z,17.02
2022-08-23T05:52:01.217Z,17.07
2022-08-23T05:54:34.853Z,16.89
2022-08-23T05:57:24.358Z,16.97
2022-08-23T05:59:53.933Z,16.89
2022-08-23T06:02:26.357Z,16.91
2022-08-23T06:05:04.397Z,16.92
2022-08-23T06:07:37.247Z,16.90
2022-08-23T06:10:16.015Z,16.87
2022-08-23T06:12:48.794Z,16.93
2022-08-23T06:15:18.692Z,16.89
2022-08-23T06:17:48.237Z,16.97
2022-08-23T06:20:18.008Z,16.72
2022-08-23T06:22:59.045Z,16.80
2022-08-23T06:25:27.380Z,16.81
2022-08-23T06:28:19.517Z,16.81
2022-08-23T06:30:56.106Z,16.79
2022-08-23T06:33:33.773Z,16.72
2022-08-23T06:36:08.913Z,16.97
2022-08-23T06:39:12.258Z,16.91
2022-08-23T06:42:02.095Z,17.08
2022-08-23T06:44:34.723Z,17.14
2022-08-23T06:47:31.367Z,16.80
2022-08-23T06:50:01.099Z,17.07
2022-08-23T06:52:50.236Z,17.08
2022-08-23T06:55:31.431Z,17.07
2022-08-23T06:58:15.776Z,17.01
2022-08-23T07:01:44.496Z,17.19
2022-08-23T07:04:34.789Z,17.02
2022-08-23T07:07:39.656Z,17.05
2022-08-23T07:10:34.440Z,17.24
2022-08-23T07:13:06.923Z,17.11
2022-08-23T07:15:38.750Z,17.16
2022-08-23T07:18:13.309Z,17.24
2022-08-23T07:20:42.146Z,17.22
2022-08-23T07:23:12.520Z,17.28
2022-08-23T07:25:41.611Z,17.28
2022-08-23T07:28:13.323Z,17.51
2022-08-23T07:30:45.588Z,17.59
2022-08-23T07:33:15.341Z,17.69
2022-08-23T07:36:12.435Z,17.73
2022-08-23T07:38:42.769Z,17.84
2022-08-23T07:41:19.679Z,17.83
2022-08-23T07:43:51.169Z,17.70
2022-08-23T07:46:21.805Z,17.93
2022-08-23T07:48:54.811Z,17.83
2022-08-23T07:51:49.855Z,17.87
2022-08-23T07:54:22.984Z,17.92
2022-08-23T07:57:01.396Z,17.96
2022-08-23T07:59:49.817Z,17.84
2022-08-23T08:02:41.577Z,17.94
2022-08-23T08:05:21.772Z,18.10
2022-08-23T08:07:51.198Z,18.11
2022-08-23T08:10:21.612Z,18.17
2022-08-23T08:12:51.622Z,18.27
2022-08-23T08:15:23.279Z,18.19
2022-08-23T08:17:58.472Z,18.18
2022-08-23T08:20:50.275Z,18.39
2022-08-23T08:23:50.001Z,18.29
2022-08-23T08:26:49.837Z,18.30
2022-08-23T08:29:20.541Z,18.39
2022-08-23T08:31:54.132Z,18.37
2022-08-23T08:34:24.100Z,18.24
2022-08-23T08:36:54.842Z,18.13
2022-08-23T08:39:28.092Z,18.19
2022-08-23T08:42:15.967Z,18.18
2022-08-23T08:44:54.378Z,18.09
2022-08-23T08:47:36.384Z,17.78
2022-08-23T08:50:11.812Z,17.91
2022-08-23T08:52:44.602Z,18.05
2022-08-23T08:55:27.300Z,18.02
2022-08-23T08:58:02.224Z,17.88
2022-08-23T09:00:36.495Z,17.83
2022-08-23T09:03:17.605Z,17.96
2022-08-23T09:05:56.400Z,17.76
2022-08-23T09:08:39.775Z,17.71
2022-08-23T09:11:15.175Z,17.96
2022-08-23T09:14:07.018Z,18.08
2022-08-23T09:16:44.991Z,17.84
2022-08-23T09:19:15.440Z,17.80
2022-08-23T09:21:48.530Z,17.60
2022-08-23T09:24:19.901Z,17.71
2022-08-23T09:27:01.092Z,17.66
2022-08-23T09:29:33.344Z,17.89
2022-08-23T09:32:03.870Z,17.63
2022-08-23T09:34:43.623Z,17.56
2022-08-23T09:37:19.974Z,17.64
2022-08-23T09:39:53.918Z,17.63
2022-08-23T09:42:32.992Z,17.55
2022-08-23T09:45:06.562Z,17.60
2022-08-23T09:47:44.827Z,17.64
2022-08-23T09:50:26.497Z,17.60
2022-08-23T09:53:00.261Z,17.76
2022-08-23T09:55:32.794Z,17.55
2022-08-23T09:58:01.605Z,17.64
2022-08-23T10:00:37.211Z,17.56
2022-08-23T10:03:27.817Z,17.79
2022-08-23T10:06:31.124Z,17.68
2022-08-23T10:09:05.987Z,17.75
2022-08-23T10:11:41.222Z,17.72
2022-08-23T10:14:12.794Z,17.77
2022-08-23T10:17:07.860Z,17.71
2022-08-23T10:19:43.170Z,17.80
2022-08-23T10:22:19.087Z,17.85
2022-08-23T10:25:23.460Z,17.81
2022-08-23T10:28:14.719Z,18.07
2022-08-23T10:30:52.924Z,18.11
2022-08-23T10:33:31.662Z,18.06
2022-08-23T10:36:13.096Z,18.05
2022-08-23T10:38:46.261Z,18.10
2022-08-23T10:41:44.019Z,18.00
2022-08-23T10:44:35.302Z,18.29
2022-08-23T10:47:27.083Z,17.98
2022-08-23T10:49:59.950Z,18.22
2022-08-23T10:52:33.707Z,18.50
2022-08-23T10:55:18.807Z,18.84
2022-08-23T10:57:49.601Z,18.83
2022-08-23T11:00:21.012Z,19.06
2022-08-23T11:02:55.718Z,19.14
2022-08-23T11:05:35.456Z,18.87
2022-08-23T11:08:33.153Z,18.73
2022-08-23T11:11:35.064Z,18.98
2022-08-23T11:14:04.389Z,18.89
2022-08-23T11:16:33.656Z,19.50
2022-08-23T11:19:02.066Z,19.33
2022-08-23T11:21:49.661Z,19.36
2022-08-23T11:24:52.832Z,19.35
2022-08-23T11:27:36.083Z,19.28
2022-08-23T11:30:45.735Z,19.27
2022-08-23T11:33:22.223Z,19.20
2022-08-23T11:35:57.079Z,19.14
2022-08-23T11:39:02.782Z,19.18
2022-08-23T11:41:37.796Z,19.29
2022-08-23T11:44:29.038Z,19.39
2022-08-23T11:47:03.582Z,19.27
2022-08-23T11:50:01.133Z,19.39
2022-08-23T11:53:10.661Z,19.72
2022-08-23T11:56:04.813Z,19.68
2022-08-23T11:58:53.791Z,19.67
2022-08-23T12:01:34.655Z,19.74
2022-08-23T12:04:10.773Z,20.01
2022-08-23T12:06:50.513Z,20.20
2022-08-23T12:10:04.669Z,19.97
2022-08-23T12:12:39.391Z,19.96
2022-08-23T12:15:13.817Z,20.46
2022-08-23T12:18:09.914Z,20.35
2022-08-23T12:20:39.043Z,20.46
2022-08-23T12:23:14.944Z,20.45
2022-08-23T12:25:43.899Z,20.79
2022-08-23T12:28:32.406Z,20.63
2022-08-23T12:31:13.463Z,20.26
2022-08-23T12:33:52.393Z,20.87
2022-08-23T12:36:26.983Z,20.53
2022-08-23T12:39:01.603Z,20.90
2022-08-23T12:41:32.104Z,21.05
2022-08-23T12:44:06.168Z,21.38
2022-08-23T12:46:38.961Z,21.51
2022-08-23T12:49:12.589Z,21.23
2022-08-23T12:51:50.204Z,21.43
2022-08-23T12:54:22.563Z,21.03
2022-08-23T12:56:53.074Z,20.73
2022-08-23T12:59:36.676Z,21.02
2022-08-23T13:02:10.453Z,20.69
2022-08-23T13:04:40.705Z,21.05
2022-08-23T13:07:11.874Z,21.10
2022-08-23T13:09:42.576Z,21.14
2022-08-23T13:12:22.774Z,21.37
2022-08-23T13:14:54.382Z,21.52
2022-08-23T13:17:39.738Z,21.52
2022-08-23T13:20:18.723Z,21.54
2022-08-23T13:23:02.796Z,21.60
2022-08-23T13:25:36.441Z,21.85
2022-08-23T13:28:10.088Z,21.43
2022-08-23T13:30:49.536Z,21.88
2022-08-23T13:33:29.632Z,22.12
2022-08-23T13:36:17.834Z,21.53
2022-08-23T13:38:57.478Z,21.33
2022-08-23T13:41:38.439Z,20.90
2022-08-23T13:44:23.628Z,20.93
2022-08-23T13:46:57.711Z,21.26
2022-08-23T13:49:33.356Z,21.45
2022-08-23T13:52:41.596Z,21.15
2022-08-23T13:55:04.989Z,20.86
2022-08-23T13:57:37.224Z,20.87
2022-08-23T14:00:19.221Z,20.78
2022-08-23T14:02:52.854Z,20.94
2022-08-23T14:05:25.864Z,20.70
2022-08-23T14:08:00.864Z,20.98
2022-08-23T14:10:50.839Z,20.71
2022-08-23T14:13:55.517Z,20.95
2022-08-23T14:16:33.203Z,20.88
2022-08-23T14:20:31.457Z,20.89
2022-08-23T14:21:55.225Z,20.89
2022-08-23T14:24:23.935Z,20.73
2022-08-23T14:26:52.786Z,20.57
2022-08-23T14:29:30.285Z,20.53
2022-08-23T14:32:14.192Z,20.45
2022-08-23T14:34:46.613Z,20.42
2022-08-23T14:40:23.054Z,20.23
2022-08-23T14:43:03.351Z,20.41
2022-08-23T14:45:36.400Z,20.64
2022-08-23T14:48:22.051Z,20.17
2022-08-23T14:51:14.166Z,20.21
2022-08-23T14:53:59.871Z,20.25
2022-08-23T14:56:35.860Z,20.36
2022-08-23T14:59:05.220Z,20.33
2022-08-23T15:01:33.836Z,20.30
2022-08-23T15:04:05.715Z,20.16
2022-08-23T15:06:35.168Z,20.23
2022-08-23T15:09:05.253Z,20.00
2022-08-23T15:14:24.815Z,20.07
2022-08-23T15:16:57.104Z,19.90
2022-08-23T15:19:25.304Z,19.73
2022-08-23T15:21:54.084Z,19.73
2022-08-23T15:24:24.776Z,19.83
2022-08-23T15:26:59.164Z,20.04
2022-08-23T15:29:27.848Z,19.82
2022-08-23T15:31:56.764Z,19.64
2022-08-23T15:34:29.205Z,19.91
2022-08-23T15:36:57.473Z,20.07
2022-08-23T15:39:26.963Z,19.84
2022-08-23T15:41:55.771Z,19.76
2022-08-23T15:44:23.896Z,19.51
2022-08-23T15:46:51.990Z,19.65
2022-08-23T15:49:20.808Z,19.74
2022-08-23T15:51:48.966Z,19.70
2022-08-23T15:54:19.714Z,19.62
2022-08-23T15:56:55.300Z,19.85
2022-08-23T15:59:24.071Z,19.81
2022-08-23T16:01:53.942Z,20.64
2022-08-23T16:04:22.757Z,20.45
2022-08-23T16:06:54.752Z,20.85
2022-08-23T16:09:25.173Z,20.64
2022-08-23T16:12:00.451Z,20.10
2022-08-23T16:14:31.191Z,20.22
2022-08-23T16:17:00.062Z,19.88
2022-08-23T16:19:28.805Z,20.11
2022-08-23T16:21:57.482Z,20.63
2022-08-23T16:24:30.497Z,20.94
2022-08-23T16:27:06.751Z,20.63
2022-08-23T16:29:39.228Z,20.76
2022-08-23T16:32:17.732Z,20.93
2022-08-23T16:34:47.248Z,20.95
2022-08-23T16:37:15.568Z,21.63
2022-08-23T16:39:45.140Z,21.36
2022-08-23T16:42:18.188Z,21.51
2022-08-23T16:44:48.984Z,21.98
2022-08-23T16:47:19.216Z,21.62
2022-08-23T16:49:48.257Z,21.06
2022-08-23T16:52:18.508Z,20.70
2022-08-23T16:54:53.118Z,20.51
2022-08-23T16:57:25.946Z,20.61
2022-08-23T16:59:56.237Z,20.48
2022-08-23T17:02:31.539Z,20.44
2022-08-23T17:05:02.760Z,20.44
2022-08-23T17:07:31.448Z,20.28
2022-08-23T17:10:02.050Z,20.13
2022-08-23T17:12:33.391Z,20.17
2022-08-23T17:15:02.014Z,20.03
2022-08-23T17:17:33.581Z,19.70
2022-08-23T17:20:05.082Z,19.68
2022-08-23T17:22:37.630Z,19.57
2022-08-23T17:25:07.026Z,19.53
2022-08-23T17:27:45.935Z,19.51
2022-08-23T17:30:17.022Z,19.43
2022-08-23T17:32:48.280Z,19.26
2022-08-23T17:35:18.793Z,19.14
2022-08-23T17:37:49.494Z,19.21
2022-08-23T17:40:21.291Z,19.00
2022-08-23T17:43:00.466Z,19.17
2022-08-23T17:45:31.713Z,19.06
2022-08-23T17:48:01.261Z,18.98
2022-08-23T17:50:29.912Z,19.18
2022-08-23T17:52:59.480Z,19.17
2022-08-23T17:55:35.535Z,19.03
2022-08-23T17:58:07.477Z,19.08
2022-08-23T18:00:39.613Z,19.09
2022-08-23T18:03:08.284Z,19.13
2022-08-23T18:05:40.084Z,19.02
2022-08-23T18:08:09.329Z,19.06
2022-08-23T18:10:40.648Z,19.09
2022-08-23T18:13:14.920Z,19.12
2022-08-23T18:15:43.223Z,19.19
2022-08-23T18:18:15.174Z,19.01
2022-08-23T18:20:44.447Z,19.28
2022-08-23T18:23:17.948Z,19.07
2022-08-23T18:25:48.157Z,18.94
2022-08-23T18:28:18.604Z,18.93
2022-08-23T18:31:14.867Z,19.17
2022-08-23T18:33:47.006Z,19.29
2022-08-23T18:36:16.430Z,19.18
2022-08-23T18:38:46.886Z,19.21
2022-08-23T18:41:15.992Z,18.97
2022-08-23T18:43:48.706Z,19.10
2022-08-23T18:46:20.734Z,18.97
2022-08-23T18:48:53.702Z,19.19
2022-08-23T18:51:23.725Z,19.17
2022-08-23T18:53:52.216Z,18.96
2022-08-23T18:56:20.733Z,19.09
2022-08-23T18:58:52.336Z,19.21
2022-08-23T19:01:23.692Z,19.07
2022-08-23T19:03:55.739Z,19.16
2022-08-23T19:06:27.269Z,19.20
2022-08-23T19:08:56.919Z,19.28
2022-08-23T19:11:26.339Z,19.18
2022-08-23T19:13:57.649Z,19.20
2022-08-23T19:16:27.047Z,19.29
2022-08-23T19:18:55.946Z,19.37
2022-08-23T19:21:27.011Z,19.34
2022-08-23T19:23:56.885Z,19.20
2022-08-23T19:26:31.924Z,19.19
2022-08-23T19:29:09.839Z,19.19
2022-08-23T19:31:43.176Z,19.20
2022-08-23T19:34:25.866Z,19.27
2022-08-23T19:37:01.149Z,19.28
2022-08-23T19:39:32.442Z,19.48
2022-08-23T19:42:01.531Z,19.35
2022-08-23T19:44:37.340Z,19.32
2022-08-23T19:47:07.665Z,19.26
2022-08-23T19:49:47.220Z,19.10
2022-08-23T19:52:19.082Z,19.15
2022-08-23T19:54:52.088Z,19.00
2022-08-23T19:57:21.921Z,19.14
2022-08-23T19:59:53.449Z,19.06
2022-08-23T20:02:28.242Z,19.25
2022-08-23T20:05:03.744Z,19.22
2022-08-23T20:07:35.937Z,19.12
2022-08-23T20:10:06.250Z,19.09
2022-08-23T20:12:38.435Z,19.21
2022-08-23T20:15:18.694Z,19.19
2022-08-23T20:17:54.904Z,19.14
2022-08-23T20:20:39.861Z,19.06
2022-08-23T20:23:43.992Z,19.26
2022-08-23T20:26:19.398Z,19.17
2022-08-23T20:28:55.209Z,19.12
2022-08-23T20:31:42.413Z,19.28
2022-08-23T20:34:14.100Z,19.21
2022-08-23T20:36:45.277Z,19.26
2022-08-23T20:39:20.393Z,19.12
2022-08-23T20:42:05.147Z,19.07
2022-08-23T20:44:45.548Z,19.22
2022-08-23T20:47:18.089Z,19.25
2022-08-23T20:50:02.429Z,19.38
2022-08-23T20:52:37.640Z,19.37
2022-08-23T20:55:09.625Z,19.38
2022-08-23T20:57:39.320Z,19.44
2022-08-23T21:00:10.205Z,19.38
2022-08-23T21:02:43.004Z,19.48
2022-08-23T21:05:13.673Z,19.44
2022-08-23T21:07:43.252Z,19.41
2022-08-23T21:10:14.395Z,19.47
2022-08-23T21:12:44.586Z,19.59
2022-08-23T21:15:21.843Z,19.48
2022-08-23T21:17:51.477Z,19.48
2022-08-23T21:20:20.592Z,19.52
2022-08-23T21:22:50.722Z,19.61
2022-08-23T21:25:21.588Z,19.49
2022-08-23T21:27:51.448Z,19.52
2022-08-23T21:30:20.444Z,19.37
2022-08-23T21:32:51.856Z,19.41
2022-08-23T21:35:21.351Z,19.49
2022-08-23T21:37:50.668Z,19.74
2022-08-23T21:40:19.434Z,19.51
2022-08-23T21:42:52.064Z,19.56
2022-08-23T21:45:20.170Z,19.67
2022-08-23T21:47:49.495Z,19.73
2022-08-23T21:50:19.817Z,19.63
2022-08-23T21:52:54.651Z,19.54
2022-08-23T21:55:36.006Z,19.58
2022-08-23T21:58:05.697Z,19.66
2022-08-23T22:00:34.648Z,19.49
2022-08-23T22:03:03.173Z,19.43
2022-08-23T22:05:33.230Z,19.38
2022-08-23T22:08:02.312Z,19.43
2022-08-23T22:10:31.435Z,19.24
2022-08-23T22:12:59.888Z,19.39
2022-08-23T22:15:27.976Z,19.47
2022-08-23T22:17:57.561Z,19.49
2022-08-23T22:20:26.372Z,19.44
2022-08-23T22:22:56.411Z,19.26
2022-08-23T22:25:25.427Z,19.38
2022-08-23T22:27:53.625Z,19.33
2022-08-23T22:30:22.508Z,19.40
2022-08-23T22:32:51.844Z,19.51
2022-08-23T22:35:20.423Z,19.55
2022-08-23T22:38:10.156Z,19.37
2022-08-23T22:40:39.487Z,19.30
2022-08-23T22:43:07.550Z,19.52
2022-08-23T22:45:35.670Z,19.39
2022-08-23T22:48:05.344Z,19.38
2022-08-23T22:50:34.386Z,19.29
2022-08-23T22:53:03.739Z,19.36
2022-08-23T22:55:32.281Z,19.39
2022-08-23T22:58:01.967Z,19.25
2022-08-23T23:00:31.120Z,19.35
2022-08-23T23:03:00.563Z,19.53
2022-08-23T23:05:28.754Z,19.27
2022-08-23T23:08:14.683Z,19.37
2022-08-23T23:10:42.816Z,19.51
2022-08-23T23:13:12.766Z,19.48
2022-08-23T23:15:42.229Z,19.68
2022-08-23T23:18:10.327Z,19.40
2022-08-23T23:20:39.413Z,19.61
2022-08-23T23:23:08.956Z,19.69
2022-08-23T23:25:38.876Z,19.76
2022-08-23T23:28:07.354Z,19.67
2022-08-23T23:30:40.365Z,19.42
2022-08-23T23:33:08.512Z,19.47
2022-08-23T23:35:38.513Z,19.62
2022-08-23T23:38:07.370Z,19.58
2022-08-23T23:40:37.055Z,19.43
2022-08-23T23:43:05.752Z,19.58
2022-08-23T23:45:39.757Z,19.54
2022-08-23T23:48:09.163Z,19.62
2022-08-23T23:50:37.659Z,19.62
2022-08-23T23:53:09.693Z,19.78
2022-08-23T23:55:38.986Z,19.68
2022-08-23T23:58:07.223Z,19.73
